createdAt,value
2019-04-21T00:00:39.687Z,14.63
2019-04-21T00:03:19.397Z,14.68
2019-04-21T00:06:07.614Z,14.68
2019-04-21T00:13:28.263Z,14.49
2019-04-21T00:15:53.231Z,14.45
2019-04-21T00:18:39.658Z,14.29
2019-04-21T00:21:12.271Z,14.44
2019-04-21T00:23:51.504Z,14.35
2019-04-21T00:26:22.644Z,14.34
2019-04-21T00:29:02.012Z,14.16
2019-04-21T00:31:24.757Z,14.08
2019-04-21T00:33:39.486Z,14.07
2019-04-21T00:36:13.176Z,14.01
2019-04-21T00:39:09.926Z,13.98
2019-04-21T00:41:32.155Z,13.88
2019-04-21T00:43:55.998Z,13.70
2019-04-21T00:46:26.721Z,13.65
2019-04-21T00:49:01.616Z,13.64
2019-04-21T00:51:47.043Z,13.63
2019-04-21T00:54:13.454Z,13.60
2019-04-21T00:56:46.711Z,13.64
2019-04-21T00:59:16.366Z,13.59
2019-04-21T01:01:45.400Z,13.49
2019-04-21T01:04:15.288Z,13.43
2019-04-21T01:06:53.129Z,13.36
2019-04-21T01:09:13.541Z,13.25
2019-04-21T01:11:50.544Z,13.13
2019-04-21T01:14:22.268Z,13.21
2019-04-21T01:16:51.465Z,13.26
2019-04-21T01:19:17.330Z,13.03
2019-04-21T01:21:29.162Z,13.01
2019-04-21T01:24:07.824Z,12.98
2019-04-21T01:26:42.582Z,12.85
2019-04-21T01:29:15.513Z,12.90
2019-04-21T01:31:51.239Z,12.78
2019-04-21T01:34:24.898Z,12.86
2019-04-21T01:36:53.038Z,12.84
2019-04-21T01:39:28.791Z,12.99
2019-04-21T01:41:58.832Z,12.87
2019-04-21T01:44:38.762Z,12.96
2019-04-21T01:46:56.361Z,12.88
2019-04-21T01:49:22.815Z,12.80
2019-04-21T01:52:10.770Z,12.72
2019-04-21T01:55:00.622Z,12.74
2019-04-21T01:57:46.985Z,12.65
2019-04-21T02:00:13.569Z,12.50
2019-04-21T02:02:59.304Z,12.40
2019-04-21T02:05:34.537Z,12.60
2019-04-21T02:07:55.406Z,12.48
2019-04-21T02:10:34.690Z,12.39
2019-04-21T02:13:02.137Z,12.25
2019-04-21T02:15:31.185Z,12.07
2019-04-21T02:18:02.397Z,12.00
2019-04-21T02:20:23.020Z,12.05
2019-04-21T02:25:53.782Z,12.00
2019-04-21T02:28:13.465Z,11.85
2019-04-21T02:31:01.138Z,11.86
2019-04-21T02:33:27.870Z,11.89
2019-04-21T02:38:30.762Z,11.73
2019-04-21T02:40:49.533Z,11.70
2019-04-21T02:45:55.946Z,11.57
2019-04-21T02:53:35.345Z,11.35
2019-04-21T02:56:00.552Z,11.20
2019-04-21T02:58:34.685Z,11.12
2019-04-21T03:04:00.049Z,11.05
2019-04-21T03:09:29.752Z,11.07
2019-04-21T03:12:05.583Z,11.18
2019-04-21T03:14:41.359Z,11.16
2019-04-21T03:16:58.216Z,11.09
2019-04-21T03:19:41.668Z,11.16
2019-04-21T03:22:05.143Z,11.09
2019-04-21T03:24:41.788Z,11.11
2019-04-21T03:27:10.393Z,11.02
2019-04-21T03:34:57.788Z,11.13
2019-04-21T03:37:13.609Z,11.16
2019-04-21T03:42:22.290Z,10.97
2019-04-21T03:44:42.220Z,10.88
2019-04-21T03:47:15.419Z,10.84
2019-04-21T03:49:49.644Z,10.80
2019-04-21T03:52:19.836Z,10.75
2019-04-21T03:58:05.512Z,10.88
2019-04-21T04:08:50.019Z,10.81
2019-04-21T04:13:55.636Z,10.85
2019-04-21T04:21:32.367Z,10.82
2019-04-21T04:23:55.323Z,10.77
2019-04-21T04:26:29.242Z,10.67
2019-04-21T04:28:54.261Z,10.64
2019-04-21T04:31:31.903Z,10.68
2019-04-21T04:36:38.831Z,10.59
2019-04-21T04:39:43.883Z,10.65
2019-04-21T04:42:27.525Z,10.66
2019-04-21T04:44:54.248Z,10.66
2019-04-21T04:47:18.277Z,10.67
2019-04-21T04:53:01.593Z,10.70
2019-04-21T04:59:48.000Z,10.89
2019-04-21T05:07:33.783Z,10.98
2019-04-21T05:09:52.405Z,11.08
2019-04-21T05:12:24.983Z,11.10
2019-04-21T05:17:37.893Z,11.20
2019-04-21T05:24:52.735Z,11.49
2019-04-21T05:27:34.998Z,11.51
2019-04-21T05:30:21.971Z,11.72
2019-04-21T05:33:03.624Z,11.89
2019-04-21T05:35:49.489Z,11.91
2019-04-21T05:38:27.278Z,12.11
2019-04-21T05:40:57.614Z,12.23
2019-04-21T05:43:32.608Z,12.32
2019-04-21T05:46:10.444Z,12.53
2019-04-21T05:48:39.494Z,12.58
2019-04-21T05:51:03.572Z,12.76
2019-04-21T05:53:41.815Z,12.79
2019-04-21T05:56:15.979Z,12.89
2019-04-21T05:58:43.645Z,13.03
2019-04-21T06:01:23.883Z,13.28
2019-04-21T06:03:54.972Z,13.26
2019-04-21T06:06:20.709Z,13.45
2019-04-21T06:08:49.665Z,13.64
2019-04-21T06:13:55.532Z,13.85
2019-04-21T06:16:34.485Z,13.91
2019-04-21T06:21:28.116Z,14.10
2019-04-21T06:23:56.974Z,14.30
2019-04-21T06:26:56.254Z,14.38
2019-04-21T06:28:59.656Z,14.60
2019-04-21T06:32:08.823Z,14.65
2019-04-21T06:34:06.323Z,14.69
2019-04-21T06:36:50.609Z,14.77
2019-04-21T06:39:48.270Z,14.82
2019-04-21T06:41:45.464Z,14.74
2019-04-21T06:44:23.975Z,15.01
2019-04-21T06:46:51.092Z,15.02
2019-04-21T06:49:22.294Z,15.15
2019-04-21T06:51:58.215Z,15.34
2019-04-21T06:54:30.619Z,15.29
2019-04-21T06:57:12.010Z,15.49
2019-04-21T06:59:28.085Z,15.67
2019-04-21T07:02:08.283Z,15.87
2019-04-21T07:04:29.593Z,15.89
2019-04-21T07:06:59.500Z,16.00
2019-04-21T07:09:34.149Z,16.03
2019-04-21T07:12:00.001Z,16.13
2019-04-21T07:14:31.954Z,16.25
2019-04-21T07:17:12.622Z,16.33
2019-04-21T07:19:40.929Z,16.52
2019-04-21T07:22:15.901Z,16.64
2019-04-21T07:24:41.947Z,16.79
2019-04-21T07:27:10.251Z,16.95
2019-04-21T07:29:39.973Z,16.82
2019-04-21T07:32:12.186Z,16.99
2019-04-21T07:34:47.987Z,17.18
2019-04-21T07:37:10.293Z,17.42
2019-04-21T07:39:39.756Z,17.50
2019-04-21T07:42:09.045Z,17.49
2019-04-21T07:44:40.882Z,17.75
2019-04-21T07:47:17.102Z,17.83
2019-04-21T07:50:08.790Z,18.02
2019-04-21T07:52:53.259Z,18.13
2019-04-21T07:57:33.083Z,18.29
2019-04-21T08:02:47.661Z,18.51
2019-04-21T08:05:13.460Z,18.67
2019-04-21T08:10:14.010Z,18.81
2019-04-21T08:12:36.357Z,19.11
2019-04-21T08:15:21.749Z,19.21
2019-04-21T08:17:42.174Z,19.09
2019-04-21T08:20:14.272Z,19.29
2019-04-21T08:30:23.741Z,19.58
2019-04-21T08:33:05.381Z,19.81
2019-04-21T08:35:48.623Z,19.85
2019-04-21T08:37:59.207Z,19.98
2019-04-21T08:40:31.666Z,19.91
2019-04-21T08:43:12.229Z,19.94
2019-04-21T08:45:45.346Z,20.16
2019-04-21T08:48:12.141Z,20.29
2019-04-21T08:50:45.928Z,20.34
2019-04-21T08:53:13.768Z,20.33
2019-04-21T08:59:00.717Z,20.48
2019-04-21T09:04:08.445Z,20.86
2019-04-21T09:06:54.136Z,20.88
2019-04-21T09:09:11.349Z,21.07
2019-04-21T09:11:46.161Z,21.16
2019-04-21T09:14:13.760Z,21.18
2019-04-21T09:16:44.391Z,21.00
2019-04-21T09:19:24.354Z,21.14
2019-04-21T09:21:59.505Z,21.56
2019-04-21T09:24:22.909Z,21.52
2019-04-21T09:26:51.468Z,21.37
2019-04-21T09:29:17.205Z,21.56
2019-04-21T09:31:41.818Z,21.75
2019-04-21T09:34:16.377Z,21.84
2019-04-21T09:36:46.685Z,21.74
2019-04-21T09:39:18.318Z,21.83
2019-04-21T09:41:44.921Z,21.92
2019-04-21T09:44:22.065Z,21.88
2019-04-21T09:46:53.879Z,22.25
2019-04-21T09:49:22.570Z,22.42
2019-04-21T09:51:50.510Z,22.35
2019-04-21T09:54:24.778Z,22.35
2019-04-21T09:56:57.677Z,22.35
2019-04-21T09:59:28.198Z,22.42
2019-04-21T10:02:03.668Z,22.38
2019-04-21T10:04:24.460Z,22.45
2019-04-21T10:06:54.425Z,22.70
2019-04-21T10:09:24.247Z,22.94
2019-04-21T10:11:54.892Z,22.99
2019-04-21T10:14:24.424Z,23.07
2019-04-21T10:17:13.180Z,23.07
2019-04-21T10:19:43.846Z,22.77
2019-04-21T10:22:14.833Z,22.95
2019-04-21T10:24:44.651Z,23.12
2019-04-21T10:27:14.773Z,23.12
2019-04-21T10:29:45.375Z,23.03
2019-04-21T10:32:15.544Z,22.80
2019-04-21T10:34:45.318Z,22.90
2019-04-21T10:37:14.727Z,22.95
2019-04-21T10:39:45.270Z,23.29
2019-04-21T10:42:15.488Z,23.32
2019-04-21T10:44:45.242Z,23.70
2019-04-21T10:47:14.637Z,23.46
2019-04-21T10:49:44.795Z,23.25
2019-04-21T10:52:19.469Z,23.56
2019-04-21T10:55:14.204Z,23.23
2019-04-21T10:57:24.494Z,23.39
2019-04-21T10:59:56.046Z,23.33
2019-04-21T11:02:32.912Z,23.53
2019-04-21T11:05:02.951Z,23.49
2019-04-21T11:08:01.229Z,23.55
2019-04-21T11:10:20.415Z,23.85
2019-04-21T11:12:50.711Z,23.85
2019-04-21T11:15:21.164Z,23.82
2019-04-21T11:17:50.772Z,23.58
2019-04-21T11:20:22.823Z,23.90
2019-04-21T11:22:53.568Z,24.26
2019-04-21T11:25:24.296Z,24.05
2019-04-21T11:27:55.234Z,24.06
2019-04-21T11:30:25.612Z,23.95
2019-04-21T11:32:55.317Z,24.08
2019-04-21T11:35:25.495Z,24.51
2019-04-21T11:38:04.611Z,24.30
2019-04-21T11:40:25.904Z,23.98
2019-04-21T11:42:56.068Z,24.14
2019-04-21T11:45:34.736Z,24.17
2019-04-21T11:48:10.512Z,23.88
2019-04-21T11:50:41.248Z,23.99
2019-04-21T11:53:10.797Z,23.93
2019-04-21T11:55:43.572Z,23.84
2019-04-21T11:58:11.867Z,23.94
2019-04-21T12:00:42.157Z,24.17
2019-04-21T12:03:14.002Z,23.92
2019-04-21T12:05:43.495Z,24.01
2019-04-21T12:08:22.974Z,24.20
2019-04-21T12:10:45.039Z,24.54
2019-04-21T12:13:14.411Z,24.34
2019-04-21T12:15:45.076Z,24.78
2019-04-21T12:18:15.517Z,24.51
2019-04-21T12:20:45.197Z,24.89
2019-04-21T12:23:14.517Z,24.83
2019-04-21T12:25:47.261Z,24.65
2019-04-21T12:28:17.407Z,24.57
2019-04-21T12:30:49.655Z,24.46
2019-04-21T12:33:34.216Z,24.13
2019-04-21T12:36:03.957Z,24.52
2019-04-21T12:38:41.432Z,24.45
2019-04-21T12:41:04.727Z,24.43
2019-04-21T12:43:34.852Z,24.62
2019-04-21T12:46:04.652Z,24.26
2019-04-21T12:48:34.027Z,24.53
2019-04-21T12:51:03.926Z,24.63
2019-04-21T12:53:33.965Z,24.57
2019-04-21T12:56:03.720Z,24.62
2019-04-21T12:58:33.221Z,24.57
2019-04-21T13:01:03.034Z,24.88
2019-04-21T13:03:32.584Z,24.59
2019-04-21T13:06:03.194Z,24.56
2019-04-21T13:08:48.847Z,24.51
2019-04-21T13:11:04.421Z,24.60
2019-04-21T13:13:33.838Z,24.33
2019-04-21T13:16:03.259Z,24.64
2019-04-21T13:18:35.438Z,25.06
2019-04-21T13:21:12.027Z,25.41
2019-04-21T13:23:43.564Z,24.72
2019-04-21T13:26:13.211Z,24.77
2019-04-21T13:28:42.651Z,24.96
2019-04-21T13:31:16.155Z,24.86
2019-04-21T13:33:50.160Z,24.77
2019-04-21T13:36:23.416Z,24.99
2019-04-21T13:39:42.370Z,24.96
2019-04-21T13:41:59.335Z,25.01
2019-04-21T13:44:16.338Z,24.67
2019-04-21T13:46:52.477Z,24.68
2019-04-21T13:49:39.244Z,24.89
2019-04-21T13:52:15.049Z,25.13
2019-04-21T13:54:45.525Z,25.04
2019-04-21T13:57:16.813Z,25.17
2019-04-21T13:59:49.434Z,24.87
2019-04-21T14:02:20.830Z,25.34
2019-04-21T14:04:51.793Z,25.23
2019-04-21T14:07:23.948Z,24.87
2019-04-21T14:10:02.570Z,25.38
2019-04-21T14:12:31.639Z,25.05
2019-04-21T14:15:02.308Z,24.77
2019-04-21T14:17:32.862Z,25.23
2019-04-21T14:20:03.486Z,25.26
2019-04-21T14:22:35.988Z,24.86
2019-04-21T14:25:05.977Z,24.96
2019-04-21T14:27:39.245Z,24.97
2019-04-21T14:30:12.279Z,24.98
2019-04-21T14:32:44.329Z,24.92
2019-04-21T14:35:14.787Z,24.86
2019-04-21T14:37:46.741Z,25.00
2019-04-21T14:40:42.025Z,24.89
2019-04-21T14:43:14.308Z,24.87
2019-04-21T14:46:09.124Z,24.96
2019-04-21T14:48:59.317Z,25.13
2019-04-21T14:51:52.666Z,25.38
2019-04-21T14:54:40.451Z,25.07
2019-04-21T14:57:09.796Z,25.03
2019-04-21T14:59:39.284Z,25.16
2019-04-21T15:02:11.772Z,25.14
2019-04-21T15:04:44.226Z,25.11
2019-04-21T15:07:19.214Z,25.18
2019-04-21T15:10:01.652Z,24.88
2019-04-21T15:12:20.728Z,25.01
2019-04-21T15:14:51.915Z,24.95
2019-04-21T15:17:24.389Z,25.08
2019-04-21T15:19:59.722Z,25.15
2019-04-21T15:22:38.618Z,25.34
2019-04-21T15:25:12.027Z,25.30
2019-04-21T15:27:50.828Z,25.34
2019-04-21T15:30:23.233Z,25.06
2019-04-21T15:32:58.101Z,25.16
2019-04-21T15:35:29.031Z,24.80
2019-04-21T15:38:01.974Z,24.94
2019-04-21T15:40:40.684Z,24.92
2019-04-21T15:43:06.835Z,24.83
2019-04-21T15:45:37.102Z,24.94
2019-04-21T15:48:11.981Z,24.77
2019-04-21T15:50:44.121Z,24.68
2019-04-21T15:53:16.022Z,24.82
2019-04-21T15:56:23.119Z,24.96
2019-04-21T15:59:12.634Z,25.05
2019-04-21T16:01:57.082Z,25.10
2019-04-21T16:04:30.729Z,24.79
2019-04-21T16:07:01.650Z,24.60
2019-04-21T16:09:37.555Z,24.76
2019-04-21T16:12:07.648Z,24.95
2019-04-21T16:14:38.660Z,24.67
2019-04-21T16:17:09.566Z,24.66
2019-04-21T16:19:41.612Z,24.61
2019-04-21T16:22:12.967Z,24.55
2019-04-21T16:24:43.892Z,24.64
2019-04-21T16:27:17.420Z,24.66
2019-04-21T16:29:47.925Z,24.63
2019-04-21T16:32:19.686Z,24.70
2019-04-21T16:34:54.220Z,24.67
2019-04-21T16:37:19.552Z,24.66
2019-04-21T16:39:49.548Z,24.57
2019-04-21T16:42:20.469Z,24.58
2019-04-21T16:44:49.968Z,24.58
2019-04-21T16:47:19.458Z,24.62
2019-04-21T16:49:49.845Z,24.64
2019-04-21T16:52:34.199Z,24.53
2019-04-21T16:55:23.214Z,24.36
2019-04-21T16:58:04.246Z,24.36
2019-04-21T17:00:40.160Z,24.30
2019-04-21T17:03:00.683Z,24.25
2019-04-21T17:05:30.193Z,24.23
2019-04-21T17:07:59.739Z,24.19
2019-04-21T17:10:30.640Z,24.18
2019-04-21T17:13:00.057Z,24.17
2019-04-21T17:16:25.337Z,24.00
2019-04-21T17:18:20.583Z,23.93
2019-04-21T17:20:43.119Z,23.97
2019-04-21T17:23:04.008Z,23.92
2019-04-21T17:25:34.059Z,23.85
2019-04-21T17:28:03.625Z,23.83
2019-04-21T17:30:32.954Z,23.79
2019-04-21T17:33:03.555Z,23.74
2019-04-21T17:35:33.248Z,23.67
2019-04-21T17:38:03.893Z,23.58
2019-04-21T17:40:33.850Z,23.44
2019-04-21T17:43:07.563Z,23.41
2019-04-21T17:45:35.222Z,23.29
2019-04-21T17:48:10.345Z,23.20
2019-04-21T17:50:59.295Z,23.14
2019-04-21T17:53:49.386Z,23.05
2019-04-21T17:56:46.406Z,22.90
2019-04-21T17:59:02.861Z,22.83
2019-04-21T18:01:40.454Z,22.80
2019-04-21T18:04:10.794Z,22.72
2019-04-21T18:06:59.355Z,22.56
2019-04-21T18:09:47.074Z,22.43
2019-04-21T18:12:07.713Z,22.38
2019-04-21T18:14:21.866Z,22.34
2019-04-21T18:16:53.325Z,22.21
2019-04-21T18:19:26.764Z,22.19
2019-04-21T18:22:03.307Z,21.99
2019-04-21T18:24:42.804Z,21.87
2019-04-21T18:27:07.456Z,21.74
2019-04-21T18:29:36.588Z,21.64
2019-04-21T18:32:06.455Z,21.53
2019-04-21T18:34:59.676Z,21.44
2019-04-21T18:38:01.601Z,21.35
2019-04-21T18:40:27.985Z,21.27
2019-04-21T18:43:35.642Z,21.20
2019-04-21T18:46:00.668Z,21.12
2019-04-21T18:48:34.888Z,20.98
2019-04-21T18:51:20.873Z,20.90
2019-04-21T18:54:20.944Z,20.89
2019-04-21T18:56:33.622Z,20.81
2019-04-21T18:59:04.454Z,20.53
2019-04-21T19:01:36.523Z,20.42
2019-04-21T19:04:12.468Z,20.40
2019-04-21T19:06:54.617Z,20.33
2019-04-21T19:09:35.552Z,20.35
2019-04-21T19:12:05.295Z,20.31
2019-04-21T19:14:36.213Z,20.18
2019-04-21T19:17:15.975Z,20.23
2019-04-21T19:22:09.165Z,20.00
2019-04-21T19:24:41.299Z,19.98
2019-04-21T19:27:12.704Z,19.88
2019-04-21T19:29:42.596Z,19.79
2019-04-21T19:32:14.944Z,19.75
2019-04-21T19:34:29.353Z,19.63
2019-04-21T19:37:00.919Z,19.50
2019-04-21T19:39:39.256Z,19.36
2019-04-21T19:42:08.613Z,19.32
2019-04-21T19:44:49.448Z,19.26
2019-04-21T19:47:24.249Z,19.22
2019-04-21T19:49:49.503Z,19.20
2019-04-21T19:52:09.413Z,19.08
2019-04-21T19:54:37.924Z,19.02
2019-04-21T19:57:04.914Z,18.94
2019-04-21T19:59:40.695Z,18.96
2019-04-21T20:02:06.957Z,18.94
2019-04-21T20:04:42.805Z,18.90
2019-04-21T20:07:22.990Z,18.82
2019-04-21T20:09:55.842Z,18.75
2019-04-21T20:12:36.922Z,18.70
2019-04-21T20:15:05.603Z,18.76
2019-04-21T20:17:31.141Z,18.68
2019-04-21T20:19:44.454Z,18.68
2019-04-21T20:22:14.747Z,18.56
2019-04-21T20:24:50.091Z,18.46
2019-04-21T20:27:24.032Z,18.49
2019-04-21T20:30:04.017Z,18.62
2019-04-21T20:32:38.233Z,18.57
2019-04-21T20:35:07.574Z,18.59
2019-04-21T20:37:37.293Z,18.56
2019-04-21T20:39:58.519Z,18.66
2019-04-21T20:42:40.226Z,18.75
2019-04-21T20:47:36.706Z,19.07
2019-04-21T20:50:08.141Z,19.00
2019-04-21T20:52:47.870Z,18.73
2019-04-21T20:55:11.951Z,18.87
2019-04-21T20:57:41.862Z,18.91
2019-04-21T21:00:19.267Z,18.91
2019-04-21T21:02:58.266Z,18.80
2019-04-21T21:05:19.073Z,18.62
2019-04-21T21:07:55.891Z,18.61
2019-04-21T21:10:20.574Z,18.53
2019-04-21T21:12:57.667Z,18.41
2019-04-21T21:15:25.246Z,18.37
2019-04-21T21:18:06.231Z,18.18
2019-04-21T21:20:30.829Z,18.19
2019-04-21T21:22:56.172Z,18.03
2019-04-21T21:25:41.363Z,17.83
2019-04-21T21:27:55.166Z,17.83
2019-04-21T21:30:30.013Z,17.74
2019-04-21T21:33:11.398Z,17.67
2019-04-21T21:35:29.598Z,17.47
2019-04-21T21:38:08.291Z,17.36
2019-04-21T21:40:35.985Z,17.26
2019-04-21T21:42:55.220Z,17.28
2019-04-21T21:45:27.514Z,17.25
2019-04-21T21:48:16.082Z,17.19
2019-04-21T21:50:38.677Z,17.05
2019-04-21T21:53:04.195Z,16.93
2019-04-21T21:55:32.243Z,16.89
2019-04-21T21:58:03.499Z,16.92
2019-04-21T22:00:32.314Z,16.88
2019-04-21T22:03:10.534Z,16.77
2019-04-21T22:05:42.336Z,16.61
2019-04-21T22:08:04.733Z,16.55
2019-04-21T22:10:34.927Z,16.49
2019-04-21T22:13:09.650Z,16.46
2019-04-21T22:15:35.748Z,16.61
2019-04-21T22:18:27.371Z,16.49
2019-04-21T22:20:55.968Z,16.37
2019-04-21T22:23:13.327Z,16.32
2019-04-21T22:25:41.846Z,16.19
2019-04-21T22:28:09.725Z,16.28
2019-04-21T22:30:44.203Z,16.31
2019-04-21T22:33:13.758Z,16.26
2019-04-21T22:35:46.260Z,16.13
2019-04-21T22:38:27.296Z,16.03
2019-04-21T22:40:55.205Z,15.86
2019-04-21T22:43:24.574Z,15.91
2019-04-21T22:45:45.430Z,15.78
2019-04-21T22:48:18.207Z,15.80
2019-04-21T22:50:46.606Z,15.77
2019-04-21T22:53:17.885Z,15.73
2019-04-21T22:55:49.557Z,15.85
2019-04-21T22:58:28.252Z,15.77
2019-04-21T23:00:54.809Z,15.69
2019-04-21T23:03:24.430Z,15.64
2019-04-21T23:05:53.585Z,15.67
2019-04-21T23:08:31.970Z,15.75
2019-04-21T23:11:00.789Z,15.70
2019-04-21T23:13:27.260Z,15.85
2019-04-21T23:15:59.046Z,15.90
2019-04-21T23:18:42.292Z,15.85
2019-04-21T23:21:13.526Z,15.74
2019-04-21T23:23:52.455Z,15.52
2019-04-21T23:26:21.018Z,15.60
2019-04-21T23:28:55.749Z,15.64
2019-04-21T23:31:27.227Z,15.67
2019-04-21T23:33:34.749Z,15.64
2019-04-21T23:36:12.931Z,15.53
2019-04-21T23:38:43.531Z,15.45
2019-04-21T23:41:09.580Z,15.31
2019-04-21T23:43:38.952Z,15.25
2019-04-21T23:46:18.824Z,15.26
2019-04-21T23:48:57.875Z,15.26
2019-04-21T23:51:21.810Z,15.17
2019-04-21T23:53:41.659Z,15.16
2019-04-21T23:56:14.684Z,15.08
2019-04-21T23:58:44.919Z,15.00
